Time;durP1;ratioP1;P1;durP2;ratioP2;P2;SDS_P1;SDS_P2;PMS_P1;PMS_P2;Temp;Humidity;BMP_temperature;BMP_pressure;BME280_temperature;BME280_humidity;BME280_pressure;Samples;Min_cycle;Max_cycle;Signal;HPM_P1;HPM_P2
2022/05/06 00:02:18;;;;;;;59.45;34.33;;;;;;;;;;5053195;28;20037;-69
2022/05/06 00:04:44;;;;;;;61.22;35.00;;;;;;;;;;5051871;28;20095;-69
2022/05/06 00:07:14;;;;;;;71.68;37.28;;;11.60;99.90;;;;;;5052990;28;20072;-69
2022/05/06 00:09:40;;;;;;;65.32;36.80;;;11.60;99.90;;;;;;5050911;28;20051;-69
2022/05/06 00:12:07;;;;;;;65.63;37.45;;;11.70;99.90;;;;;;5051658;28;20560;-69
2022/05/06 00:14:35;;;;;;;76.53;38.67;;;;;;;;;;5051980;28;20132;-69
2022/05/06 00:17:01;;;;;;;68.00;37.00;;;11.60;99.90;;;;;;5035123;28;20069;-69
2022/05/06 00:19:27;;;;;;;75.20;37.55;;;;;;;;;;5050884;28;20045;-70
2022/05/06 00:21:53;;;;;;;70.63;37.45;;;;;;;;;;5051720;28;20048;-70
2022/05/06 00:24:18;;;;;;;71.03;38.40;;;11.70;99.90;;;;;;5051540;28;20328;-69
2022/05/06 00:26:44;;;;;;;65.50;37.10;;;;;;;;;;5052860;28;20132;-69
2022/05/06 00:29:10;;;;;;;68.40;37.10;;;;;;;;;;5051497;28;20092;-69
2022/05/06 00:31:36;;;;;;;67.30;34.67;;;;;;;;;;5051403;28;20041;-69
2022/05/06 00:34:02;;;;;;;66.15;35.30;;;11.50;99.90;;;;;;5034647;28;20128;-69
2022/05/06 00:36:28;;;;;;;66.15;35.65;;;;;;;;;;5051407;28;20433;-69
2022/05/06 00:38:54;;;;;;;63.88;35.90;;;;;;;;;;5050543;28;20076;-68
2022/05/06 00:41:20;;;;;;;61.55;33.65;;;;;;;;;;5050859;28;20049;-69
2022/05/06 00:43:46;;;;;;;62.83;34.95;;;;;;;;;;5051067;28;20127;-70
2022/05/06 00:46:15;;;;;;;61.63;33.25;;;11.40;99.90;;;;;;5034403;28;20068;-69
2022/05/06 00:48:44;;;;;;;60.95;34.13;;;11.30;99.90;;;;;;5052188;28;20080;-69
2022/05/06 00:51:10;;;;;;;61.45;33.45;;;11.30;99.90;;;;;;5033683;28;20040;-69
2022/05/06 00:53:36;;;;;;;58.58;33.28;;;11.20;99.90;;;;;;5052373;28;20044;-69
2022/05/06 00:56:03;;;;;;;59.40;33.65;;;11.30;99.90;;;;;;5052299;28;20037;-69
2022/05/06 00:58:31;;;;;;;58.53;33.15;;;11.20;99.90;;;;;;5050637;28;20032;-70
2022/05/06 01:00:57;;;;;;;60.65;33.58;;;11.20;99.90;;;;;;5050220;28;20129;-68
2022/05/06 01:03:23;;;;;;;63.97;34.30;;;;;;;;;;5034188;28;20176;-68
2022/05/06 01:05:49;;;;;;;64.68;35.55;;;11.20;99.90;;;;;;5050703;28;20041;-69
2022/05/06 01:08:16;;;;;;;63.08;34.35;;;;;;;;;;5052033;28;20048;-69
2022/05/06 01:10:43;;;;;;;58.75;33.97;;;10.90;99.90;;;;;;5049922;28;20049;-69
2022/05/06 01:13:09;;;;;;;60.80;33.78;;;10.90;99.90;;;;;;5051982;28;20037;-69
2022/05/06 01:15:36;;;;;;;58.75;33.00;;;10.90;99.90;;;;;;5050488;28;20045;-69
2022/05/06 01:18:02;;;;;;;60.33;34.60;;;;;;;;;;5051607;28;20037;-69
2022/05/06 01:20:27;;;;;;;61.42;34.83;;;11.00;99.90;;;;;;5049833;28;20076;-69
2022/05/06 01:23:00;;;;;;;61.75;34.60;;;10.90;99.90;;;;;;5033936;28;20068;-69
2022/05/06 01:25:27;;;;;;;62.13;33.50;;;10.90;99.90;;;;;;5050698;28;20308;-69
2022/05/06 01:27:56;;;;;;;53.10;30.67;;;10.80;99.90;;;;;;5050668;28;20406;-69
2022/05/06 01:30:36;;;;;;;51.85;28.55;;;10.70;99.90;;;;;;5049483;28;20099;-69
2022/05/06 01:33:03;;;;;;;47.80;28.05;;;10.60;99.90;;;;;;5051817;28;20103;-69
2022/05/06 01:35:32;;;;;;;46.60;26.75;;;10.40;99.90;;;;;;5050278;28;20060;-69
2022/05/06 01:38:04;;;;;;;45.05;27.08;;;10.50;99.90;;;;;;5051535;28;20087;-69
2022/05/06 01:40:35;;;;;;;48.90;23.95;;;10.60;99.90;;;;;;5049153;28;20131;-69
2022/05/06 01:43:02;;;;;;;43.03;25.20;;;10.50;99.90;;;;;;5051449;28;20081;-69
2022/05/06 01:45:30;;;;;;;39.10;22.65;;;10.50;99.90;;;;;;5050179;28;20029;-69
2022/05/06 01:47:58;;;;;;;35.83;22.67;;;10.50;99.90;;;;;;5051566;28;20095;-69
2022/05/06 01:50:23;;;;;;;35.70;21.88;;;10.40;99.90;;;;;;5050810;28;20045;-69
2022/05/06 01:52:52;;;;;;;36.53;22.05;;;10.50;99.90;;;;;;5050502;28;20052;-69
2022/05/06 01:55:18;;;;;;;36.92;23.50;;;;;;;;;;5051330;28;20544;-69
2022/05/06 01:57:45;;;;;;;39.80;24.67;;;;;;;;;;5049835;28;20514;-69
2022/05/06 02:00:13;;;;;;;46.50;26.77;;;10.20;99.90;;;;;;5049584;28;20102;-69
2022/05/06 02:02:39;;;;;;;45.90;26.42;;;10.40;99.90;;;;;;5050056;28;20411;-69
2022/05/06 02:05:17;;;;;;;48.95;26.92;;;10.30;99.90;;;;;;5051305;28;20041;-68
2022/05/06 02:07:48;;;;;;;49.30;26.63;;;10.30;99.90;;;;;;5049975;28;20041;-68
2022/05/06 02:10:15;;;;;;;49.03;25.48;;;10.50;99.90;;;;;;5032857;28;20175;-69
2022/05/06 02:12:41;;;;;;;51.25;27.85;;;;;;;;;;5050362;28;20098;-69
2022/05/06 02:15:08;;;;;;;53.13;26.52;;;10.50;99.90;;;;;;5050264;28;20049;-69
2022/05/06 02:17:34;;;;;;;53.10;29.20;;;10.70;99.90;;;;;;5051174;28;20033;-69
2022/05/06 02:20:00;;;;;;;49.45;27.75;;;;;;;;;;5050697;28;20182;-69
2022/05/06 02:22:29;;;;;;;51.53;26.98;;;;;;;;;;5050112;28;20037;-70
2022/05/06 02:24:57;;;;;;;69.45;32.78;;;10.60;99.90;;;;;;5049954;28;20041;-69
2022/05/06 02:27:23;;;;;;;66.18;33.35;;;10.70;99.90;;;;;;5050233;28;20045;-69
2022/05/06 02:35:17;;;;;;;57.13;31.20;;;10.90;99.90;;;;;;5049828;28;20045;-69
2022/05/06 02:37:43;;;;;;;72.03;33.35;;;11.00;99.90;;;;;;5049779;28;20037;-69
2022/05/06 02:40:10;;;;;;;63.60;33.50;;;10.80;99.90;;;;;;5050378;28;20537;-69
2022/05/06 02:42:36;;;;;;;60.03;30.92;;;;;;;;;;5049993;28;20403;-69
2022/05/06 02:45:02;;;;;;;65.30;31.77;;;12.10;99.90;;;;;;5049787;28;20037;-69
2022/05/06 02:47:29;;;;;;;60.05;32.22;;;11.10;99.90;;;;;;5049545;28;20068;-68
2022/05/06 02:49:54;;;;;;;63.10;30.00;;;10.90;99.90;;;;;;5032355;28;20120;-69
2022/05/06 02:52:20;;;;;;;63.95;31.63;;;11.00;99.90;;;;;;5050971;28;20190;-69
2022/05/06 02:54:46;;;;;;;68.88;33.13;;;;;;;;;;5054660;28;20053;-68
2022/05/06 02:57:12;;;;;;;68.13;34.83;;;;;;;;;;5053450;28;20041;-69
2022/05/06 02:59:39;;;;;;;73.43;33.53;;;10.90;99.90;;;;;;5054539;28;20044;-68
2022/05/06 03:02:05;;;;;;;80.97;35.25;;;11.10;99.90;;;;;;5054224;28;20040;-68
2022/05/06 03:04:31;;;;;;;76.47;35.58;;;11.00;99.90;;;;;;5053106;28;20044;-68
2022/05/06 03:06:57;;;;;;;75.82;34.47;;;;;;;;;;5036383;28;20045;-68
2022/05/06 03:09:23;;;;;;;91.70;37.05;;;11.20;99.90;;;;;;5053520;28;20044;-68
2022/05/06 03:11:48;;;;;;;71.30;35.15;;;10.90;99.90;;;;;;5053105;28;20047;-69
2022/05/06 03:14:14;;;;;;;90.95;36.35;;;;;;;;;;5054180;28;20147;-69
2022/05/06 03:16:40;;;;;;;133.95;42.38;;;11.00;99.90;;;;;;5052834;28;20502;-68
2022/05/06 03:19:06;;;;;;;102.10;34.20;;;;;;;;;;5052416;28;20546;-69
2022/05/06 03:21:32;;;;;;;140.70;36.88;;;11.00;99.90;;;;;;5052962;28;20399;-69
2022/05/06 03:23:59;;;;;;;97.65;35.15;;;10.90;99.90;;;;;;5052736;28;20033;-69
2022/05/06 03:26:24;;;;;;;75.30;32.13;;;10.90;99.90;;;;;;5052744;28;20044;-69
2022/05/06 03:28:52;;;;;;;117.13;37.72;;;;;;;;;;5052354;28;20064;-69
2022/05/06 03:31:18;;;;;;;89.15;36.97;;;;;;;;;;5052156;28;20045;-69
2022/05/06 03:33:45;;;;;;;93.60;33.88;;;11.00;99.90;;;;;;5052783;28;20041;-69
2022/05/06 03:36:11;;;;;;;190.20;43.90;;;;;;;;;;5052416;28;20086;-69
2022/05/06 03:38:37;;;;;;;114.97;35.33;;;;;;;;;;5052461;28;20041;-69
2022/05/06 03:41:02;;;;;;;82.95;32.95;;;10.90;99.90;;;;;;5051624;28;20037;-69
2022/05/06 03:43:28;;;;;;;143.00;36.40;;;11.00;99.90;;;;;;5035698;28;20029;-69
2022/05/06 03:45:54;;;;;;;122.00;35.13;;;;;;;;;;5053398;28;20121;-70
2022/05/06 03:48:24;;;;;;;114.68;33.38;;;;;;;;;;5052178;28;20052;-71
2022/05/06 03:53:35;;;;;;;348.88;47.95;;;10.90;99.90;;;;;;5052122;28;20041;-70
2022/05/06 03:56:01;;;;;;;244.77;39.00;;;;;;;;;;5052026;28;20041;-70
2022/05/06 03:58:27;;;;;;;135.25;35.80;;;11.00;99.90;;;;;;5052944;28;20084;-68
2022/05/06 04:00:53;;;;;;;193.82;35.15;;;;;;;;;;5051176;28;20148;-70
2022/05/06 04:03:19;;;;;;;138.30;34.08;;;10.80;99.90;;;;;;5034912;28;20042;-69
2022/05/06 04:05:44;;;;;;;300.13;41.75;;;10.90;99.90;;;;;;5051993;28;20048;-69
2022/05/06 04:08:10;;;;;;;123.80;35.80;;;10.90;99.90;;;;;;5053083;28;20037;-69
2022/05/06 04:10:36;;;;;;;212.65;35.92;;;;;;;;;;5052256;28;20033;-69
2022/05/06 04:13:05;;;;;;;206.93;37.83;;;;;;;;;;5051714;28;20068;-70
2022/05/06 04:15:34;;;;;;;218.90;41.67;;;10.90;99.90;;;;;;5053301;28;20498;-69
2022/05/06 04:18:03;;;;;;;143.25;38.17;;;10.90;99.90;;;;;;5053013;28;20103;-69
2022/05/06 04:23:32;;;;;;;158.88;35.10;;;;;;;;;;5051524;28;20513;-70
2022/05/06 04:26:06;;;;;;;201.15;39.50;;;11.00;99.90;;;;;;5053006;28;20049;-69
2022/05/06 04:28:32;;;;;;;127.85;34.78;;;11.10;99.90;;;;;;5051340;28;20406;-70
2022/05/06 04:30:59;;;;;;;152.90;35.58;;;10.90;99.90;;;;;;5050665;28;20032;-69
2022/05/06 04:33:25;;;;;;;163.27;36.33;;;10.90;99.90;;;;;;5051365;28;20052;-70
2022/05/06 04:35:51;;;;;;;136.80;35.10;;;;;;;;;;5052525;28;20049;-69
2022/05/06 04:38:18;;;;;;;128.25;33.83;;;;;;;;;;5051076;28;20048;-70
2022/05/06 04:40:43;;;;;;;151.68;32.63;;;11.00;99.90;;;;;;5050444;28;20041;-69
2022/05/06 04:43:10;;;;;;;149.80;30.63;;;10.90;99.90;;;;;;5034592;28;20404;-70
2022/05/06 04:45:39;;;;;;;133.98;27.33;;;10.90;99.90;;;;;;5051424;28;20041;-70
2022/05/06 04:48:10;;;;;;;162.32;28.02;;;10.80;99.90;;;;;;5052335;28;20040;-69
2022/05/06 04:50:36;;;;;;;171.15;28.17;;;;;;;;;;5050128;28;20119;-69
2022/05/06 04:53:05;;;;;;;176.95;30.73;;;10.70;99.90;;;;;;5050748;28;20132;-67
2022/05/06 04:55:30;;;;;;;225.75;37.22;;;10.80;99.90;;;;;;5051158;28;20083;-69
2022/05/06 04:57:56;;;;;;;224.48;32.08;;;;;;;;;;5050755;28;20072;-70
2022/05/06 05:00:22;;;;;;;159.10;31.08;;;;;;;;;;5050158;28;20041;-69
2022/05/06 05:02:48;;;;;;;187.75;31.15;;;;;;;;;;5052008;28;20036;-70
2022/05/06 05:05:15;;;;;;;144.73;29.35;;;;;;;;;;5050978;28;20399;-69
2022/05/06 05:07:41;;;;;;;122.63;34.22;;;10.90;99.90;;;;;;5051046;28;20382;-70
2022/05/06 05:10:08;;;;;;;110.78;31.17;;;10.90;99.90;;;;;;5051387;28;20041;-69
2022/05/06 05:12:35;;;;;;;141.43;31.52;;;11.10;99.90;;;;;;5051032;28;20103;-69
2022/05/06 05:15:01;;;;;;;83.03;27.45;;;11.20;99.90;;;;;;5052046;28;20044;-69
2022/05/06 05:17:26;;;;;;;80.90;29.25;;;11.10;99.90;;;;;;5051615;28;20037;-69
2022/05/06 05:19:52;;;;;;;76.55;26.40;;;;;;;;;;5051034;28;20041;-69
2022/05/06 05:22:19;;;;;;;96.20;27.45;;;;;;;;;;5050462;28;20068;-69
2022/05/06 05:24:45;;;;;;;84.18;24.55;;;;;;;;;;5050369;28;20033;-69
2022/05/06 05:27:10;;;;;;;66.57;23.13;;;11.10;99.90;;;;;;5051744;28;20403;-69
2022/05/06 05:29:36;;;;;;;69.90;23.80;;;11.20;99.90;;;;;;5050927;28;20041;-70
2022/05/06 05:32:02;;;;;;;56.53;21.17;;;11.10;99.90;;;;;;5051381;28;20045;-69
2022/05/06 05:34:28;;;;;;;58.67;21.33;;;;;;;;;;5043649;28;20064;-70
2022/05/06 05:36:54;;;;;;;52.53;19.45;;;;;;;;;;5048014;28;20037;-67
2022/05/06 05:39:19;;;;;;;38.67;17.40;;;11.10;99.90;;;;;;5046715;28;20134;-69
2022/05/06 05:41:45;;;;;;;37.42;15.82;;;;;;;;;;5048457;28;20048;-70
2022/05/06 05:49:41;;;;;;;32.05;15.55;;;11.20;99.90;;;;;;5046791;28;20044;-69
2022/05/06 05:52:07;;;;;;;24.30;14.20;;;;;;;;;;5046596;28;20087;-69
2022/05/06 05:54:33;;;;;;;23.15;13.27;;;;;;;;;;5031340;28;20475;-69
2022/05/06 05:56:59;;;;;;;31.13;14.65;;;;;;;;;;5049031;28;20140;-69
2022/05/06 05:59:25;;;;;;;22.65;13.45;;;;;;;;;;5048392;28;20033;-69
2022/05/06 06:01:51;;;;;;;21.33;11.93;;;;;;;;;;5031295;28;20518;-69
2022/05/06 06:04:17;;;;;;;25.13;13.10;;;11.30;99.90;;;;;;5050364;28;20037;-69
2022/05/06 06:06:43;;;;;;;25.90;13.60;;;;;;;;;;5049202;28;20032;-69
2022/05/06 06:09:09;;;;;;;27.60;14.82;;;11.50;99.90;;;;;;5048120;28;20044;-69
2022/05/06 06:11:35;;;;;;;23.05;12.65;;;;;;;;;;5048472;28;20477;-68
2022/05/06 06:14:02;;;;;;;20.75;12.65;;;11.20;99.90;;;;;;5049803;28;20056;-70
2022/05/06 06:16:28;;;;;;;19.23;11.32;;;;;;;;;;5049013;28;20532;-69
2022/05/06 06:18:58;;;;;;;21.08;12.32;;;;;;;;;;5048659;28;20052;-70
2022/05/06 06:21:27;;;;;;;19.77;11.88;;;11.40;99.90;;;;;;5032484;28;20068;-69
2022/05/06 06:23:53;;;;;;;16.80;10.07;;;;;;;;;;5030933;28;20044;-69
2022/05/06 06:26:19;;;;;;;13.85;9.23;;;11.50;99.90;;;;;;5046873;28;20075;-69
2022/05/06 06:28:45;;;;;;;12.88;8.32;;;;;;;;;;5050880;28;20124;-69
2022/05/06 06:31:12;;;;;;;13.35;8.93;;;;;;;;;;5043207;28;20083;-69
2022/05/06 06:33:38;;;;;;;13.38;8.55;;;11.70;99.90;;;;;;5044275;28;20054;-69
2022/05/06 06:36:05;;;;;;;12.18;7.88;;;11.50;99.90;;;;;;5030468;28;20035;-69
2022/05/06 06:38:31;;;;;;;18.08;7.78;;;;;;;;;;5038831;28;20037;-69
2022/05/06 06:40:57;;;;;;;11.48;7.47;;;;;;;;;;5047536;28;20098;-69
2022/05/06 06:43:25;;;;;;;11.43;7.90;;;;;;;;;;5048405;28;20052;-68
2022/05/06 06:45:51;;;;;;;11.15;7.90;;;11.70;99.90;;;;;;5046743;28;20657;-69
2022/05/06 06:48:17;;;;;;;14.63;8.75;;;;;;;;;;5047016;28;20116;-69
2022/05/06 06:50:43;;;;;;;14.05;8.43;;;;;;;;;;5048062;28;20414;-69
2022/05/06 06:53:09;;;;;;;12.75;8.82;;;;;;;;;;5040444;28;20082;-68
2022/05/06 06:55:35;;;;;;;13.27;9.25;;;;;;;;;;5047685;28;20037;-68
2022/05/06 06:58:01;;;;;;;14.52;9.10;;;11.70;99.90;;;;;;5029984;28;20431;-67
2022/05/06 07:00:27;;;;;;;11.10;8.70;;;;;;;;;;5047101;28;20079;-68
2022/05/06 07:02:55;;;;;;;13.23;9.73;;;;;;;;;;5048896;28;20324;-68
2022/05/06 07:05:22;;;;;;;14.20;10.30;;;;;;;;;;5029905;28;20072;-69
2022/05/06 07:13:17;;;;;;;16.77;12.02;;;;;;;;;;5049256;28;20049;-71
2022/05/06 07:15:44;;;;;;;16.27;11.25;;;;;;;;;;5047086;28;20044;-69
2022/05/06 07:18:09;;;;;;;16.25;11.07;;;12.00;99.90;;;;;;5051063;28;20316;-69
2022/05/06 07:20:35;;;;;;;16.25;12.05;;;;;;;;;;5044341;28;20419;-71
2022/05/06 07:23:01;;;;;;;15.15;10.80;;;12.20;99.90;;;;;;5050025;28;20041;-71
2022/05/06 07:25:27;;;;;;;13.68;10.30;;;12.50;99.90;;;;;;5048892;28;20039;-69
2022/05/06 07:27:52;;;;;;;12.60;9.73;;;;;;;;;;5050620;28;20041;-70
2022/05/06 07:30:18;;;;;;;10.25;8.35;;;;;;;;;;5051519;28;20450;-70
2022/05/06 07:32:44;;;;;;;10.63;8.32;;;;;;;;;;5050714;28;20041;-69
2022/05/06 07:35:10;;;;;;;12.75;9.52;;;;;;;;;;5033972;28;20037;-69
2022/05/06 07:37:36;;;;;;;11.82;8.98;;;;;;;;;;5051440;28;20056;-69
2022/05/06 07:40:06;;;;;;;12.40;8.95;;;12.70;99.90;;;;;;5047419;28;20060;-69
2022/05/06 07:42:34;;;;;;;11.15;9.20;;;;;;;;;;5047568;28;20029;-69
2022/05/06 07:45:00;;;;;;;11.85;8.38;;;12.80;99.90;;;;;;5049356;28;20049;-69
2022/05/06 07:47:25;;;;;;;9.73;8.32;;;;;;;;;;5032603;28;20560;-69
2022/05/06 07:49:51;;;;;;;10.20;8.48;;;;;;;;;;5045338;28;20070;-69
2022/05/06 07:52:18;;;;;;;10.60;8.48;;;;;;;;;;5042813;28;20044;-67
2022/05/06 07:54:44;;;;;;;12.85;9.57;;;;;;;;;;5040416;28;20518;-70
2022/05/06 07:57:09;;;;;;;9.23;8.00;;;13.60;99.90;;;;;;5047698;28;20041;-69
2022/05/06 07:59:35;;;;;;;9.00;7.43;;;;;;;;;;5048070;28;20025;-69
2022/05/06 08:04:48;;;;;;;10.18;8.43;;;;;;;;;;5048468;28;20040;-68
2022/05/06 08:07:15;;;;;;;10.05;7.72;;;13.80;99.90;;;;;;5049049;28;20116;-69
2022/05/06 08:09:40;;;;;;;10.60;8.13;;;13.80;99.90;;;;;;5050128;28;20288;-69
2022/05/06 08:12:07;;;;;;;9.68;7.57;;;;;;;;;;5049292;28;20063;-69
2022/05/06 08:14:32;;;;;;;9.75;7.80;;;13.80;99.90;;;;;;5050317;28;20128;-69
2022/05/06 08:17:01;;;;;;;9.63;7.93;;;;;;;;;;5032637;28;20128;-69
2022/05/06 08:19:27;;;;;;;11.18;8.73;;;;;;;;;;5047261;28;20140;-69
2022/05/06 08:21:53;;;;;;;10.43;8.20;;;14.20;99.90;;;;;;5048878;28;20123;-69
2022/05/06 08:24:19;;;;;;;10.18;7.65;;;14.20;99.90;;;;;;5049049;28;20512;-70
2022/05/06 08:26:46;;;;;;;9.60;7.85;;;;;;;;;;5050167;28;20033;-69
2022/05/06 08:29:11;;;;;;;11.18;7.38;;;14.30;99.90;;;;;;5049389;28;20163;-69
2022/05/06 08:31:37;;;;;;;12.30;8.30;;;14.60;99.90;;;;;;5049433;28;20048;-69
2022/05/06 08:34:07;;;;;;;9.98;7.90;;;14.70;99.90;;;;;;5050301;28;20045;-70
2022/05/06 08:36:34;;;;;;;10.35;7.38;;;14.40;99.90;;;;;;5050626;28;20041;-69
2022/05/06 08:39:01;;;;;;;7.88;6.97;;;14.20;99.90;;;;;;5045525;28;20120;-69
2022/05/06 08:41:27;;;;;;;8.82;7.63;;;14.30;99.90;;;;;;5053588;28;20064;-69
2022/05/06 08:43:53;;;;;;;8.35;7.07;;;14.60;99.90;;;;;;5056922;28;20561;-69
2022/05/06 08:51:53;;;;;;;7.82;6.50;;;14.90;99.90;;;;;;5047739;28;20103;-69
2022/05/06 08:54:19;;;;;;;8.32;7.03;;;14.70;99.90;;;;;;5050204;28;20047;-69
2022/05/06 08:56:45;;;;;;;8.60;6.55;;;;;;;;;;5053102;28;20032;-69
2022/05/06 08:59:11;;;;;;;7.30;6.22;;;;;;;;;;5050309;28;20498;-70
2022/05/06 09:01:37;;;;;;;10.05;7.97;;;15.00;99.90;;;;;;5049597;28;20064;-69
2022/05/06 09:04:03;;;;;;;8.93;7.28;;;15.20;99.90;;;;;;5048084;28;20076;-69
2022/05/06 09:06:31;;;;;;;10.00;7.97;;;15.10;99.90;;;;;;5050531;28;20053;-70
2022/05/06 09:08:58;;;;;;;8.77;6.50;;;15.50;99.90;;;;;;5037946;28;20510;-70
2022/05/06 09:14:16;;;;;;;9.10;6.63;;;15.90;99.90;;;;;;5053877;28;20040;-69
2022/05/06 09:16:42;;;;;;;8.18;5.60;;;16.00;99.90;;;;;;5047431;28;20127;-70
2022/05/06 09:19:25;;;;;;;12.57;6.88;;;16.20;99.90;;;;;;5047912;28;20059;-68
2022/05/06 09:22:03;;;;;;;9.27;5.97;;;16.20;99.90;;;;;;5049466;28;20453;-71
2022/05/06 09:24:30;;;;;;;6.22;5.13;;;16.20;99.90;;;;;;5049919;28;20044;-70
2022/05/06 09:26:57;;;;;;;9.23;5.82;;;16.10;99.90;;;;;;5046975;28;20144;-70
2022/05/06 09:29:41;;;;;;;8.10;5.60;;;16.30;99.90;;;;;;5046099;28;20090;-70
2022/05/06 09:32:23;;;;;;;5.75;5.10;;;16.60;99.90;;;;;;5049642;28;20055;-70
2022/05/06 09:35:09;;;;;;;6.22;5.13;;;16.50;99.90;;;;;;5046288;28;20045;-70
2022/05/06 09:37:48;;;;;;;7.43;5.22;;;16.80;99.90;;;;;;5032911;28;20052;-70
2022/05/06 09:40:16;;;;;;;5.55;4.72;;;16.80;99.90;;;;;;5027115;28;20040;-70
2022/05/06 09:42:55;;;;;;;4.95;4.45;;;16.90;99.90;;;;;;5048778;28;20040;-70
2022/05/06 09:45:38;;;;;;;5.15;4.60;;;17.30;99.90;;;;;;5028483;28;20545;-69
2022/05/06 09:48:04;;;;;;;6.25;5.07;;;17.40;99.90;;;;;;5045937;28;20040;-70
2022/05/06 09:50:38;;;;;;;4.90;4.15;;;17.20;99.90;;;;;;5046995;28;20037;-68
2022/05/06 09:53:07;;;;;;;8.23;4.63;;;17.20;99.90;;;;;;5041485;28;20045;-68
2022/05/06 09:55:35;;;;;;;4.13;3.42;;;17.90;99.90;;;;;;5027400;28;20331;-70
2022/05/06 09:58:01;;;;;;;10.57;3.78;;;17.70;99.90;;;;;;5048152;28;20048;-71
2022/05/06 10:00:27;;;;;;;5.18;3.20;;;17.70;99.90;;;;;;5046723;28;20410;-70
2022/05/06 10:02:54;;;;;;;4.65;3.30;;;17.80;99.90;;;;;;5049785;28;20344;-68
2022/05/06 10:05:20;;;;;;;3.95;3.35;;;17.50;99.90;;;;;;5052093;28;20041;-70
2022/05/06 10:07:46;;;;;;;4.32;3.15;;;;;;;;;;5018930;28;20048;-70
2022/05/06 10:10:22;;;;;;;4.70;3.20;;;17.80;99.90;;;;;;5050900;28;20040;-70
2022/05/06 10:12:53;;;;;;;3.60;2.97;;;18.00;99.90;;;;;;5049034;28;20033;-71
2022/05/06 10:15:21;;;;;;;5.60;3.58;;;17.90;99.90;;;;;;5058790;28;20037;-70
2022/05/06 10:17:47;;;;;;;4.90;3.28;;;17.90;99.90;;;;;;5053551;28;20495;-70
2022/05/06 10:20:35;;;;;;;3.30;2.97;;;17.80;99.90;;;;;;5047677;28;20048;-70
2022/05/06 10:23:08;;;;;;;5.32;3.08;;;17.90;99.90;;;;;;5053090;28;20502;-70
2022/05/06 10:25:43;;;;;;;4.18;3.00;;;18.00;99.90;;;;;;5052643;28;20055;-70
2022/05/06 10:34:12;;;;;;;4.65;3.97;;;18.10;99.90;;;;;;5052433;28;20118;-70
2022/05/06 10:36:42;;;;;;;3.65;3.35;;;18.00;99.90;;;;;;5035785;28;20049;-70
2022/05/06 10:39:37;;;;;;;5.80;3.22;;;18.10;99.90;;;;;;5051898;28;20507;-70
2022/05/06 10:42:07;;;;;;;4.25;3.65;;;18.20;99.90;;;;;;5044067;28;20445;-70
2022/05/06 10:44:37;;;;;;;6.95;4.03;;;18.20;99.90;;;;;;5008298;28;20491;-68
2022/05/06 10:47:38;;;;;;;8.13;4.60;;;18.20;99.90;;;;;;5047868;28;20051;-70
2022/05/06 10:50:15;;;;;;;6.28;4.25;;;18.70;99.90;;;;;;5045581;28;20110;-69
2022/05/06 10:52:41;;;;;;;11.82;5.10;;;18.60;99.90;;;;;;5052022;28;20044;-70
2022/05/06 10:55:11;;;;;;;4.38;3.97;;;18.30;99.90;;;;;;5051814;28;20045;-69
2022/05/06 10:57:50;;;;;;;6.22;4.60;;;18.80;99.90;;;;;;5054140;28;20040;-70
2022/05/06 11:00:16;;;;;;;5.13;4.15;;;18.90;99.90;;;;;;5053298;28;20045;-70
2022/05/06 11:02:42;;;;;;;8.27;4.43;;;18.90;99.90;;;;;;5052173;28;20128;-70
2022/05/06 11:05:12;;;;;;;9.65;4.60;;;18.60;99.90;;;;;;5035232;28;20171;-70
2022/05/06 11:07:40;;;;;;;7.50;5.97;;;18.50;99.90;;;;;;5052826;28;20048;-70
2022/05/06 11:10:09;;;;;;;9.57;4.60;;;18.20;99.90;;;;;;5051189;28;20056;-71
2022/05/06 11:12:47;;;;;;;18.35;5.25;;;18.20;99.90;;;;;;5050958;28;20041;-70
2022/05/06 11:15:17;;;;;;;8.82;5.25;;;18.50;99.90;;;;;;5051069;28;20530;-70
2022/05/06 11:17:43;;;;;;;5.32;4.18;;;18.60;99.90;;;;;;5048769;28;20415;-70
2022/05/06 11:20:26;;;;;;;7.38;5.28;;;18.60;99.90;;;;;;5014750;28;20067;-71
2022/05/06 11:23:00;;;;;;;9.73;4.30;;;19.00;99.90;;;;;;5030429;28;20438;-71
2022/05/06 11:25:28;;;;;;;6.03;4.50;;;19.10;99.90;;;;;;5031734;28;20029;-70
2022/05/06 11:27:55;;;;;;;9.00;3.95;;;18.70;99.90;;;;;;5044564;28;20052;-70
2022/05/06 11:30:23;;;;;;;3.35;2.22;;;19.30;99.90;;;;;;5051963;28;20049;-71
2022/05/06 11:32:54;;;;;;;5.55;3.33;;;19.30;99.90;;;;;;5055250;28;20066;-70
2022/05/06 11:35:25;;;;;;;4.90;3.63;;;19.40;99.90;;;;;;5045821;28;20169;-71
2022/05/06 11:37:50;;;;;;;4.65;3.67;;;19.40;99.90;;;;;;5055049;28;20052;-70
2022/05/06 11:40:34;;;;;;;7.32;4.65;;;19.40;99.90;;;;;;5050886;28;20041;-70
2022/05/06 11:43:00;;;;;;;10.70;4.85;;;19.20;99.90;;;;;;5034576;28;20174;-71
2022/05/06 11:48:12;;;;;;;6.20;4.85;;;20.00;99.90;;;;;;5050623;28;20049;-70
2022/05/06 11:50:39;;;;;;;7.28;4.25;;;20.20;99.90;;;;;;5050673;28;20489;-70
2022/05/06 11:53:08;;;;;;;7.30;3.22;;;20.40;99.90;;;;;;5058887;28;20032;-71
2022/05/06 11:55:35;;;;;;;4.53;2.75;;;19.80;99.90;;;;;;5041967;28;20044;-71
2022/05/06 11:58:03;;;;;;;3.05;2.75;;;20.30;99.90;;;;;;5052549;28;20037;-70
2022/05/06 12:00:29;;;;;;;3.80;3.40;;;20.60;99.90;;;;;;5033806;28;20049;-70
2022/05/06 12:02:55;;;;;;;4.88;3.35;;;20.20;99.90;;;;;;5063057;28;20040;-71
2022/05/06 12:05:21;;;;;;;5.03;4.05;;;20.20;99.90;;;;;;5070959;28;20124;-70
2022/05/06 12:07:48;;;;;;;7.63;4.97;;;20.00;99.90;;;;;;5051083;28;20039;-71
2022/05/06 12:10:34;;;;;;;5.13;3.47;;;20.40;99.90;;;;;;5059434;28;20040;-69
2022/05/06 12:13:04;;;;;;;6.60;4.22;;;20.20;99.90;;;;;;5052202;28;20123;-71
2022/05/06 12:15:38;;;;;;;7.93;5.35;;;19.90;99.90;;;;;;5062165;28;20048;-71
2022/05/06 12:18:10;;;;;;;5.65;4.50;;;20.00;99.90;;;;;;5050731;28;20499;-71
2022/05/06 12:20:38;;;;;;;7.45;4.50;;;20.20;99.90;;;;;;5033047;28;20048;-71
2022/05/06 12:23:05;;;;;;;5.05;3.78;;;20.30;99.90;;;;;;5050846;28;20037;-70
2022/05/06 12:25:32;;;;;;;9.95;6.05;;;20.50;99.90;;;;;;5051392;28;20090;-71
2022/05/06 12:28:18;;;;;;;8.30;5.93;;;20.10;99.90;;;;;;5020837;28;20033;-70
2022/05/06 12:30:45;;;;;;;8.15;5.70;;;20.30;99.90;;;;;;5031052;28;20396;-73
2022/05/06 12:33:12;;;;;;;7.45;5.72;;;20.00;99.90;;;;;;5047225;28;20107;-72
2022/05/06 12:36:01;;;;;;;8.23;5.22;;;20.40;99.90;;;;;;5063899;28;20057;-70
2022/05/06 12:38:46;;;;;;;5.80;5.15;;;20.30;99.90;;;;;;5030271;28;20056;-70
2022/05/06 12:41:21;;;;;;;10.27;6.95;;;20.90;99.90;;;;;;5013312;28;20033;-70
2022/05/06 12:43:48;;;;;;;8.85;6.88;;;20.00;99.90;;;;;;5048381;28;20491;-71
2022/05/06 12:46:43;;;;;;;11.27;8.32;;;19.80;99.90;;;;;;5054423;28;20099;-70
2022/05/06 12:51:53;;;;;;;11.25;6.90;;;19.70;99.90;;;;;;5054802;28;20553;-70
2022/05/06 12:54:19;;;;;;;7.78;6.07;;;19.80;99.90;;;;;;5045322;28;20049;-71
2022/05/06 12:56:44;;;;;;;12.10;7.97;;;20.20;99.90;;;;;;5049895;28;20562;-71
2022/05/06 12:59:10;;;;;;;11.70;8.68;;;20.20;99.90;;;;;;5050367;28;20083;-71
2022/05/06 13:01:36;;;;;;;10.75;7.68;;;20.20;99.90;;;;;;5050103;28;20029;-71
2022/05/06 13:04:02;;;;;;;14.43;9.07;;;20.60;99.90;;;;;;5033430;28;20167;-71
2022/05/06 13:06:31;;;;;;;10.40;7.38;;;20.70;99.90;;;;;;5050903;28;20110;-70
2022/05/06 13:08:57;;;;;;;11.85;8.95;;;21.20;99.90;;;;;;5049566;28;20061;-71
2022/05/06 13:11:22;;;;;;;14.77;9.40;;;21.60;99.90;;;;;;5049547;28;20043;-72
2022/05/06 13:13:48;;;;;;;16.42;10.77;;;21.50;99.90;;;;;;5050054;28;20048;-71
2022/05/06 13:16:14;;;;;;;14.73;9.68;;;21.20;99.90;;;;;;5049501;28;20077;-71
2022/05/06 13:18:40;;;;;;;13.32;9.52;;;21.00;99.90;;;;;;5050657;28;20053;-71
2022/05/06 13:21:06;;;;;;;18.38;10.90;;;20.80;99.90;;;;;;5055228;28;20040;-71
2022/05/06 13:23:32;;;;;;;15.35;10.68;;;21.40;99.90;;;;;;5064124;28;20033;-71
2022/05/06 13:25:57;;;;;;;13.43;8.95;;;21.80;99.90;;;;;;5070036;28;20043;-70
2022/05/06 13:28:23;;;;;;;13.93;10.35;;;21.20;99.90;;;;;;5052452;28;20264;-70
2022/05/06 13:30:49;;;;;;;14.15;9.13;;;21.20;99.90;;;;;;5048937;28;20425;-71
2022/05/06 13:33:14;;;;;;;13.45;9.38;;;21.50;99.90;;;;;;5049450;28;20045;-70
2022/05/06 13:35:41;;;;;;;12.95;9.60;;;21.90;99.90;;;;;;5049979;28;20044;-71
2022/05/06 13:38:07;;;;;;;14.70;10.35;;;22.20;99.90;;;;;;5049750;28;20041;-70
2022/05/06 13:40:32;;;;;;;16.67;10.68;;;22.00;99.80;;;;;;5050209;28;20041;-71
2022/05/06 13:42:58;;;;;;;15.15;11.57;;;21.40;99.90;;;;;;5050917;28;20036;-71
2022/05/06 13:45:23;;;;;;;14.20;10.20;;;21.00;99.90;;;;;;5049450;28;20045;-71
2022/05/06 13:47:50;;;;;;;13.23;9.38;;;20.90;99.90;;;;;;5032750;28;20131;-70
2022/05/06 13:50:15;;;;;;;14.35;10.82;;;21.40;99.90;;;;;;5048736;28;20044;-70
2022/05/06 13:52:42;;;;;;;13.75;10.65;;;21.70;99.90;;;;;;5053347;28;20048;-72